Time;durP1;ratioP1;P1;durP2;ratioP2;P2;SDS_P1;SDS_P2;PMS_P1;PMS_P2;Temp;Humidity;BMP_temperature;BMP_pressure;BME280_temperature;BME280_humidity;BME280_pressure;Samples;Min_cycle;Max_cycle;Signal;HPM_P1;HPM_P2
2023/06/25 00:01:09;;;;;;;;;;;;;;;;;;5089166;28;19908;-50
2023/06/25 05:11:26;;;;;;;;;;;;;;;;;;5067072;28;20140;-46
2023/06/25 05:13:52;;;;;;;;;;;;;;;;;;5067949;28;19920;-45
2023/06/25 05:16:18;;;;;;;;;;;;;;;;;;5068051;28;19977;-45
2023/06/25 05:18:44;;;;;;;;;;;;;;;;;;5067478;28;19949;-46
2023/06/25 05:21:09;;;;;;;;;;;;;;;;;;5067933;28;20312;-45
2023/06/25 05:23:35;;;;;;;;;;;;;;;;;;5065815;28;20066;-46
2023/06/25 05:26:01;;;;;;;;;;;;;;;;;;5067891;28;19912;-46
2023/06/25 05:28:28;;;;;;;;;;;;;;;;;;5066082;28;20466;-46
2023/06/25 05:30:54;;;;;;;;;;;;;;;;;;5067709;28;20419;-46
2023/06/25 05:33:21;;;;;;;;;;;;;;;;;;5067700;28;19908;-47
2023/06/25 05:35:48;;;;;;;;;;;;;;;;;;5067847;28;19909;-47
2023/06/25 05:38:14;;;;;;;;;;;;;;;;;;5067451;28;19919;-45
2023/06/25 05:40:40;;;;;;;;;;;;;;;;;;5067619;28;19904;-46
2023/06/25 05:43:06;;;;;;;;;;;;;;;;;;5068438;28;20346;-48
2023/06/25 05:45:32;;;;;;;;;;;;;;;;;;5088555;28;19954;-46
2023/06/25 05:47:57;;;;;;;;;;;;;;;;;;5078887;28;19930;-48
2023/06/25 05:50:23;;;;;;;;;;;;;;;;;;5091585;28;19908;-45
2023/06/25 05:52:49;;;;;;;;;;;;;;;;;;5089873;28;19916;-45
2023/06/25 05:55:15;;;;;;;;;;;;;;;;;;5097077;28;19916;-48
2023/06/25 05:57:41;;;;;;;;;;;;;;;;;;5088401;28;20032;-46
2023/06/25 06:00:08;;;;;;;;;;;;;;;;;;5088787;28;20472;-49
2023/06/25 06:02:34;;;;;;;;;;;;;;;;;;5089145;28;19913;-46
2023/06/25 06:05:00;;;;;;;;;;;;;;;;;;5089016;28;19999;-46
2023/06/25 06:07:26;;;;;;;;;;;;;;;;;;5089053;28;19908;-46
2023/06/25 06:09:52;;;;;;;;;;;;;;;;;;5088956;28;19973;-48
2023/06/25 06:12:18;;;;;;;;;;;;;;;;;;5088872;28;19919;-46
2023/06/25 06:14:44;;;;;;;;;;;;;;;;;;5088914;28;19908;-48
2023/06/25 06:17:10;;;;;;;;;;;;;;;;;;5087424;28;19923;-47
2023/06/25 06:19:36;;;;;;;;;;;;;;;;;;5088083;28;19912;-47
2023/06/25 06:22:02;;;;;;;;;;;;;;;;;;5087437;28;19933;-47
2023/06/25 06:24:28;;;;;;;;;;;;;;;;;;5087232;28;20010;-48
2023/06/25 06:26:54;;;;;;;;;;;;;;;;;;5086897;28;20107;-47
2023/06/25 06:29:20;;;;;;;;;;;;;;;;;;5088138;28;19914;-46
2023/06/25 06:31:46;;;;;;;;;;;;;;;;;;5087773;28;20003;-48
2023/06/25 06:34:12;;;;;;;;;;;;;;;;;;5088088;28;20006;-48
2023/06/25 06:36:38;;;;;;;;;;;;;;;;;;5089365;28;20365;-46
2023/06/25 06:39:05;;;;;;;;;;;;;;;;;;5091292;28;19908;-47
2023/06/25 06:41:30;;;;;;;;;;;;;;;;;;5090639;28;19916;-48
2023/06/25 06:43:56;;;;;;;;;;;;;;;;;;5091399;28;19919;-47
2023/06/25 06:46:22;;;;;;;;;;;;;;;;;;5089161;28;19920;-48
2023/06/25 06:48:48;;;;;;;;;;;;;;;;;;5091342;28;19908;-45
2023/06/25 06:51:14;;;;;;;;;;;;;;;;;;5089597;28;19955;-47
2023/06/25 06:53:40;;;;;;;;;;;;;;;;;;5091934;28;19912;-49
2023/06/25 06:56:06;;;;;;;;;;;;;;;;;;5092467;28;19916;-45
2023/06/25 06:58:32;;;;;;;;;;;;;;;;;;5092156;28;19919;-46
2023/06/25 07:00:59;;;;;;;;;;;;;;;;;;5090926;28;19916;-46
2023/06/25 07:03:26;;;;;;;;;;;;;;;;;;5091305;28;19916;-48
2023/06/25 07:05:51;;;;;;;;;;;;;;;;;;5090989;28;20353;-47
2023/06/25 07:08:17;;;;;;;;;;;;;;;;;;5091172;28;19919;-47
2023/06/25 07:10:43;;;;;;;;;;;;;;;;;;5090645;28;19916;-48
2023/06/25 07:13:09;;;;;;;;;;;;;;;;;;5090513;28;19958;-46
2023/06/25 07:15:35;;;;;;;;;;;;;;;;;;5091040;28;19934;-46
2023/06/25 07:18:01;;;;;;;;;;;;;;;;;;5090557;28;19961;-46
2023/06/25 07:20:27;;;;;;;;;;;;;;;;;;5090820;28;19994;-47
2023/06/25 07:22:54;;;;;;;;;;;;;;;;;;5090533;28;19908;-45
2023/06/25 07:25:20;;;;;;;;;;;;;;;;;;5090787;28;19945;-45
2023/06/25 07:27:46;;;;;;;;;;;;;;;;;;5090440;28;19996;-45
2023/06/25 07:30:12;;;;;;;;;;;;;;;;;;5090393;28;20114;-46
2023/06/25 07:32:37;;;;;;;;;;;;;;;;;;5090439;28;19912;-47
2023/06/25 07:35:03;;;;;;;;;;;;;;;;;;5090555;28;19963;-46
2023/06/25 07:37:29;;;;;;;;;;;;;;;;;;5090044;28;20011;-46
2023/06/25 07:39:55;;;;;;;;;;;;;;;;;;5090296;28;19908;-47
2023/06/25 07:42:22;;;;;;;;;;;;;;;;;;5089918;28;19915;-46
2023/06/25 07:44:48;;;;;;;;;;;;;;;;;;5090024;28;19999;-45
2023/06/25 07:47:14;;;;;;;;;;;;;;;;;;5090105;28;20370;-50
2023/06/25 07:49:41;;;;;;;;;;;;;;;;;;5087143;28;19912;-45
2023/06/25 07:52:07;;;;;;;;;;;;;;;;;;5087386;28;19916;-46
2023/06/25 07:54:32;;;;;;;;;;;;;;;;;;5084377;28;20397;-49
2023/06/25 07:56:58;;;;;;;;;;;;;;;;;;5081963;28;19923;-48
2023/06/25 07:59:25;;;;;;;;;;;;;;;;;;5090468;28;19955;-49
2023/06/25 08:01:51;;;;;;;;;;;;;;;;;;5090824;28;20295;-48
2023/06/25 08:04:17;;;;;;;;;;;;;;;;;;5085679;28;19999;-47
2023/06/25 08:06:43;;;;;;;;;;;;;;;;;;5088940;28;19929;-48
2023/06/25 08:09:09;;;;;;;;;;;;;;;;;;5090865;28;19958;-50
2023/06/25 08:11:36;;;;;;;;;;;;;;;;;;5090140;28;20492;-51
2023/06/25 08:14:01;;;;;;;;;;;;;;;;;;5090809;28;19995;-49
2023/06/25 08:16:27;;;;;;;;;;;;;;;;;;5090428;28;20010;-50
2023/06/25 08:18:53;;;;;;;;;;;;;;;;;;5090800;28;19908;-47
2023/06/25 08:21:19;;;;;;;;;;;;;;;;;;5090927;28;19908;-46
2023/06/25 08:23:45;;;;;;;;;;;;;;;;;;5090625;28;19909;-48
2023/06/25 08:26:13;;;;;;;;;;;;;;;;;;5090594;28;19912;-49
2023/06/25 08:28:41;;;;;;;;;;;;;;;;;;5084250;28;20933;-48
2023/06/25 08:31:06;;;;;;;;;;;;;;;;;;5071448;28;19908;-47
2023/06/25 08:33:32;;;;;;;;;;;;;;;;;;5071245;28;19995;-46
2023/06/25 08:35:58;;;;;;;;;;;;;;;;;;5071146;28;19986;-47
2023/06/25 08:38:24;;;;;;;;;;;;;;;;;;5071207;28;19912;-47
2023/06/25 08:40:50;;;;;;;;;;;;;;;;;;5071406;28;19955;-48
2023/06/25 08:43:16;;;;;;;;;;;;;;;;;;5071292;28;19909;-48
2023/06/25 08:45:42;;;;;;;;;;;;;;;;;;5070976;28;19908;-49
2023/06/25 08:48:08;;;;;;;;;;;;;;;;;;5075031;28;19916;-48
2023/06/25 08:50:34;;;;;;;;;;;;;;;;;;5091090;28;19915;-48
2023/06/25 08:53:00;;;;;;;;;;;;;;;;;;5091205;28;19908;-47
2023/06/25 08:55:26;;;;;;;;;;;;;;;;;;5090937;28;19933;-49
2023/06/25 08:57:52;;;;;;;;;;;;;;;;;;5090167;28;19970;-46
2023/06/25 09:00:18;;;;;;;;;;;;;;;;;;5091245;28;19912;-50
2023/06/25 09:02:44;;;;;;;;;;;;;;;;;;5091024;28;19919;-48
2023/06/25 09:05:12;;;;;;;;;;;;;;;;;;5085689;28;19919;-50
2023/06/25 09:07:38;;;;;;;;;;;;;;;;;;5090410;28;20051;-52
2023/06/25 09:10:04;;;;;;;;;;;;;;;;;;5090703;28;20004;-50
2023/06/25 09:12:30;;;;;;;;;;;;;;;;;;5090471;28;19920;-47
2023/06/25 09:14:56;;;;;;;;;;;;;;;;;;5089342;28;19908;-50
2023/06/25 09:17:22;;;;;;;;;;;;;;;;;;5090575;28;19919;-47
2023/06/25 09:19:48;;;;;;;;;;;;;;;;;;5090743;28;20613;-48
2023/06/25 09:22:14;;;;;;;;;;;;;;;;;;5090604;28;19908;-49
2023/06/25 09:24:40;;;;;;;;;;;;;;;;;;5090480;28;19908;-47
2023/06/25 09:27:06;;;;;;;;;;;;;;;;;;5082163;28;19909;-49
2023/06/25 09:29:32;;;;;;;;;;;;;;;;;;5069997;28;19912;-50
2023/06/25 09:31:58;;;;;;;;;;;;;;;;;;5089802;28;20014;-48
2023/06/25 09:34:24;;;;;;;;;;;;;;;;;;5088914;28;19930;-46
2023/06/25 09:36:50;;;;;;;;;;;;;;;;;;5090577;28;19912;-46
2023/06/25 09:39:16;;;;;;;;;;;;;;;;;;5090409;28;19977;-48
2023/06/25 09:41:42;;;;;;;;;;;;;;;;;;5076880;28;19920;-46
2023/06/25 09:44:08;;;;;;;;;;;;;;;;;;5070216;28;19971;-47
2023/06/25 09:46:34;;;;;;;;;;;;;;;;;;5070154;28;20373;-46
2023/06/25 09:49:03;;;;;;;;;;;;;;;;;;5078788;28;19944;-46
2023/06/25 09:51:29;;;;;;;;;;;;;;;;;;5090171;28;19908;-46
2023/06/25 09:53:56;;;;;;;;;;;;;;;;;;5090101;28;20007;-47
2023/06/25 09:56:54;;;;;;;;;;;;;;;;;;5087382;28;19912;-46
2023/06/25 09:59:20;;;;;;;;;;;;;;;;;;5086465;28;19912;-47
2023/06/25 10:01:46;;;;;;;;;;;;;;;;;;5085743;28;19912;-47
2023/06/25 10:04:12;;;;;;;;;;;;;;;;;;5087503;28;19962;-49
2023/06/25 10:06:38;;;;;;;;;;;;;;;;;;5081318;28;19967;-49
2023/06/25 10:09:04;;;;;;;;;;;;;;;;;;5067062;28;19963;-52
2023/06/25 10:11:30;;;;;;;;;;;;;;;;;;5067010;28;19940;-49
2023/06/25 10:13:56;;;;;;;;;;;;;;;;;;5088300;28;19958;-49
2023/06/25 10:16:22;;;;;;;;;;;;;;;;;;5107391;28;19912;-49
2023/06/25 10:18:48;;;;;;;;;;;;;;;;;;5090215;28;19912;-47
2023/06/25 10:21:14;;;;;;;;;;;;;;;;;;5100709;28;20264;-46
2023/06/25 10:23:40;;;;;;;;;;;;;;;;;;5107538;28;19998;-47
2023/06/25 10:26:06;;;;;;;;;;;;;;;;;;5104966;28;19981;-51
2023/06/25 10:28:32;;;;;;;;;;;;;;;;;;5088556;28;19920;-48
2023/06/25 10:30:59;;;;;;;;;;;;;;;;;;5086895;28;19912;-47
2023/06/25 10:33:25;;;;;;;;;;;;;;;;;;5085802;28;20284;-46
2023/06/25 10:35:51;;;;;;;;;;;;;;;;;;5086812;28;19916;-51
2023/06/25 10:38:17;;;;;;;;;;;;;;;;;;5085740;28;19931;-45
2023/06/25 10:40:43;;;;;;;;;;;;;;;;;;5084180;28;19916;-50
2023/06/25 10:43:09;;;;;;;;;;;;;;;;;;5085735;28;19951;-47
2023/06/25 10:45:35;;;;;;;;;;;;;;;;;;5085543;28;20375;-47
2023/06/25 10:48:01;;;;;;;;;;;;;;;;;;5084156;28;19935;-46
2023/06/25 10:50:27;;;;;;;;;;;;;;;;;;5085613;28;19966;-47
2023/06/25 10:52:54;;;;;;;;;;;;;;;;;;5085773;28;19992;-48
2023/06/25 10:55:20;;;;;;;;;;;;;;;;;;5085352;28;19961;-46
2023/06/25 10:57:46;;;;;;;;;;;;;;;;;;5086040;28;19916;-46
2023/06/25 11:00:11;;;;;;;;;;;;;;;;;;5085278;28;20395;-49
2023/06/25 11:02:37;;;;;;;;;;;;;;;;;;5085296;28;20638;-48
2023/06/25 11:05:03;;;;;;;;;;;;;;;;;;5082577;28;20383;-45
2023/06/25 11:07:30;;;;;;;;;;;;;;;;;;5064230;28;19923;-45
2023/06/25 11:09:56;;;;;;;;;;;;;;;;;;5048851;28;19924;-46
2023/06/25 11:12:23;;;;;;;;;;;;;;;;;;5047856;28;20063;-46
2023/06/25 11:14:49;;;;;;;;;;;;;;;;;;5061486;28;19963;-50
2023/06/25 11:17:15;;;;;;;;;;;;;;;;;;5061418;28;19944;-54
2023/06/25 11:19:42;;;;;;;;;;;;;;;;;;5056983;28;19955;-50
2023/06/25 11:22:08;;;;;;;;;;;;;;;;;;5060426;28;20224;-50
2023/06/25 11:24:34;;;;;;;;;;;;;;;;;;5067203;28;20433;-54
2023/06/25 11:27:01;;;;;;;;;;;;;;;;;;5064777;28;19912;-53
2023/06/25 11:29:28;;;;;;;;;;;;;;;;;;5054671;28;19998;-52
2023/06/25 11:31:54;;;;;;;;;;;;;;;;;;5052431;28;20375;-53
2023/06/25 11:34:20;;;;;;;;;;;;;;;;;;5050061;28;19944;-55
2023/06/25 11:36:47;;;;;;;;;;;;;;;;;;5051613;28;19920;-54
2023/06/25 11:39:13;;;;;;;;;;;;;;;;;;5066198;28;19923;-55
2023/06/25 11:41:40;;;;;;;;;;;;;;;;;;5066210;28;19912;-54
2023/06/25 11:44:06;;;;;;;;;;;;;;;;;;5066026;28;19916;-49
2023/06/25 11:46:33;;;;;;;;;;;;;;;;;;5065395;28;19919;-52
2023/06/25 11:48:59;;;;;;;;;;;;;;;;;;5065468;28;19916;-54
2023/06/25 11:51:26;;;;;;;;;;;;;;;;;;5065974;28;19970;-54
2023/06/25 11:53:53;;;;;;;;;;;;;;;;;;5057370;28;19952;-53
2023/06/25 11:56:20;;;;;;;;;;;;;;;;;;5054526;28;19916;-53
2023/06/25 11:58:46;;;;;;;;;;;;;;;;;;5063290;28;19916;-51
2023/06/25 12:01:12;;;;;;;;;;;;;;;;;;5061998;28;20386;-50
2023/06/25 12:03:38;;;;;;;;;;;;;;;;;;5065794;28;19920;-54
2023/06/25 12:06:04;;;;;;;;;;;;;;;;;;5065681;28;19916;-51
2023/06/25 12:08:29;;;;;;;;;;;;;;;;;;5065857;28;20319;-50
2023/06/25 12:10:55;;;;;;;;;;;;;;;;;;5064928;28;19956;-47
2023/06/25 12:13:21;;;;;;;;;;;;;;;;;;5064507;28;19947;-50
2023/06/25 12:15:47;;;;;;;;;;;;;;;;;;5065100;28;19999;-49
2023/06/25 12:18:13;;;;;;;;;;;;;;;;;;5045761;28;19927;-48
2023/06/25 12:20:39;;;;;;;;;;;;;;;;;;5063661;28;19939;-47
2023/06/25 12:23:05;;;;;;;;;;;;;;;;;;5066188;28;19913;-49
2023/06/25 12:25:31;;;;;;;;;;;;;;;;;;5064510;28;19959;-49
2023/06/25 12:27:57;;;;;;;;;;;;;;;;;;5064072;28;19962;-49
2023/06/25 12:30:23;;;;;;;;;;;;;;;;;;5047557;28;19967;-46
2023/06/25 12:32:49;;;;;;;;;;;;;;;;;;5045692;28;19916;-48
2023/06/25 12:35:15;;;;;;;;;;;;;;;;;;5047495;28;20011;-48
2023/06/25 12:37:41;;;;;;;;;;;;;;;;;;5078231;28;20278;-48
2023/06/25 12:40:07;;;;;;;;;;;;;;;;;;5050756;28;19975;-49
2023/06/25 12:42:33;;;;;;;;;;;;;;;;;;5051744;28;19912;-47
2023/06/25 12:44:58;;;;;;;;;;;;;;;;;;5058876;28;20011;-46
2023/06/25 12:47:24;;;;;;;;;;;;;;;;;;5050661;28;20014;-49
2023/06/25 12:49:50;;;;;;;;;;;;;;;;;;5064598;28;19916;-49
2023/06/25 12:52:17;;;;;;;;;;;;;;;;;;5065803;28;19960;-47
2023/06/25 12:54:43;;;;;;;;;;;;;;;;;;5065359;28;19916;-48
2023/06/25 12:57:09;;;;;;;;;;;;;;;;;;5064140;28;19954;-48
2023/06/25 12:59:36;;;;;;;;;;;;;;;;;;5065559;28;19931;-47
2023/06/25 13:02:03;;;;;;;;;;;;;;;;;;5064125;28;19912;-51
2023/06/25 13:04:28;;;;;;;;;;;;;;;;;;5061509;28;20026;-49
2023/06/25 13:06:54;;;;;;;;;;;;;;;;;;5064578;28;20003;-48
2023/06/25 13:09:20;;;;;;;;;;;;;;;;;;5059288;28;20292;-47
2023/06/25 13:11:47;;;;;;;;;;;;;;;;;;5052903;28;19924;-47
2023/06/25 13:14:13;;;;;;;;;;;;;;;;;;5058224;28;20003;-49
2023/06/25 13:16:39;;;;;;;;;;;;;;;;;;5063791;28;20011;-47
2023/06/25 13:19:05;;;;;;;;;;;;;;;;;;5059485;28;20383;-47
2023/06/25 13:21:31;;;;;;;;;;;;;;;;;;5060899;28;19917;-50
2023/06/25 13:23:57;;;;;;;;;;;;;;;;;;5053648;28;20315;-49
2023/06/25 13:26:23;;;;;;;;;;;;;;;;;;5061093;28;19955;-46
2023/06/25 13:28:49;;;;;;;;;;;;;;;;;;5058422;28;20229;-47
2023/06/25 13:31:15;;;;;;;;;;;;;;;;;;5059068;28;19946;-48
2023/06/25 13:33:41;;;;;;;;;;;;;;;;;;5066079;28;20308;-49
2023/06/25 13:36:07;;;;;;;;;;;;;;;;;;5062697;28;20163;-49
2023/06/25 13:38:33;;;;;;;;;;;;;;;;;;5054766;28;20496;-47
2023/06/25 13:40:59;;;;;;;;;;;;;;;;;;5061800;28;19958;-49
2023/06/25 13:43:24;;;;;;;;;;;;;;;;;;5056678;28;19913;-47
2023/06/25 13:45:50;;;;;;;;;;;;;;;;;;5064340;28;20095;-47
2023/06/25 13:48:16;;;;;;;;;;;;;;;;;;5053706;28;19921;-51
2023/06/25 13:50:42;;;;;;;;;;;;;;;;;;5059260;28;19951;-50
2023/06/25 13:53:08;;;;;;;;;;;;;;;;;;5050565;28;19913;-49
2023/06/25 13:55:34;;;;;;;;;;;;;;;;;;5062407;28;19966;-49
2023/06/25 13:58:00;;;;;;;;;;;;;;;;;;5064244;28;19938;-50
2023/06/25 14:00:26;;;;;;;;;;;;;;;;;;5076000;28;19917;-48
2023/06/25 14:02:52;;;;;;;;;;;;;;;;;;5054178;28;19923;-50
2023/06/25 14:05:17;;;;;;;;;;;;;;;;;;5045995;28;19909;-50
2023/06/25 14:07:43;;;;;;;;;;;;;;;;;;5055358;28;20007;-51
2023/06/25 14:10:09;;;;;;;;;;;;;;;;;;5066036;28;20423;-47
2023/06/25 14:12:35;;;;;;;;;;;;;;;;;;5065002;28;19956;-51
2023/06/25 14:15:02;;;;;;;;;;;;;;;;;;5065675;28;19940;-50
2023/06/25 14:17:28;;;;;;;;;;;;;;;;;;5065741;28;19912;-49
2023/06/25 14:19:55;;;;;;;;;;;;;;;;;;5066112;28;20294;-49
2023/06/25 14:22:21;;;;;;;;;;;;;;;;;;5054698;28;20390;-50
2023/06/25 14:24:47;;;;;;;;;;;;;;;;;;5045677;28;19913;-48
2023/06/25 14:27:14;;;;;;;;;;;;;;;;;;5045752;28;20367;-47
2023/06/25 14:29:40;;;;;;;;;;;;;;;;;;5046032;28;20291;-47
2023/06/25 14:32:06;;;;;;;;;;;;;;;;;;5045812;28;19917;-48
2023/06/25 14:34:31;;;;;;;;;;;;;;;;;;5045515;28;19912;-48
2023/06/25 14:36:59;;;;;;;;;;;;;;;;;;5045410;28;20065;-48
2023/06/25 14:39:24;;;;;;;;;;;;;;;;;;5045009;28;19909;-52
2023/06/25 14:41:50;;;;;;;;;;;;;;;;;;5065468;28;19913;-49
2023/06/25 14:44:17;;;;;;;;;;;;;;;;;;5065812;28;19920;-49
2023/06/25 14:46:43;;;;;;;;;;;;;;;;;;5049265;28;19944;-47
2023/06/25 14:49:09;;;;;;;;;;;;;;;;;;5049740;28;19979;-48
2023/06/25 14:51:35;;;;;;;;;;;;;;;;;;5067097;28;19916;-48
2023/06/25 14:54:02;;;;;;;;;;;;;;;;;;5069197;28;19991;-50
2023/06/25 14:56:28;;;;;;;;;;;;;;;;;;5069190;28;19916;-47
2023/06/25 14:58:54;;;;;;;;;;;;;;;;;;5068705;28;20286;-52
2023/06/25 15:01:21;;;;;;;;;;;;;;;;;;5070855;28;19912;-50
2023/06/25 15:03:48;;;;;;;;;;;;;;;;;;5064937;28;20481;-49
2023/06/25 15:06:14;;;;;;;;;;;;;;;;;;5070267;28;20367;-52
2023/06/25 15:08:41;;;;;;;;;;;;;;;;;;5068545;28;19912;-48
2023/06/25 15:11:07;;;;;;;;;;;;;;;;;;5063094;28;19913;-52
2023/06/25 15:13:33;;;;;;;;;;;;;;;;;;5069350;28;19913;-50
2023/06/25 15:15:58;;;;;;;;;;;;;;;;;;5069752;28;19913;-47
2023/06/25 15:18:24;;;;;;;;;;;;;;;;;;5075140;28;19974;-49
2023/06/25 15:20:50;;;;;;;;;;;;;;;;;;5082854;28;19912;-50
2023/06/25 15:23:16;;;;;;;;;;;;;;;;;;5084593;28;20460;-48
2023/06/25 15:25:42;;;;;;;;;;;;;;;;;;5072318;28;19943;-49
2023/06/25 15:28:08;;;;;;;;;;;;;;;;;;5069785;28;20399;-50
2023/06/25 15:30:34;;;;;;;;;;;;;;;;;;5070688;28;19918;-50
2023/06/25 15:33:00;;;;;;;;;;;;;;;;;;5080085;28;19915;-48
2023/06/25 15:35:26;;;;;;;;;;;;;;;;;;5069237;28;19946;-50
2023/06/25 15:37:52;;;;;;;;;;;;;;;;;;5066612;28;19935;-48
2023/06/25 15:40:17;;;;;;;;;;;;;;;;;;5068365;28;19908;-48
2023/06/25 15:42:43;;;;;;;;;;;;;;;;;;5069834;28;20406;-49
2023/06/25 15:45:09;;;;;;;;;;;;;;;;;;5068806;28;19917;-48
2023/06/25 15:47:35;;;;;;;;;;;;;;;;;;5068030;28;20415;-48
2023/06/25 15:50:01;;;;;;;;;;;;;;;;;;5079173;28;20329;-49
2023/06/25 15:52:27;;;;;;;;;;;;;;;;;;5088242;28;19912;-51
2023/06/25 15:54:53;;;;;;;;;;;;;;;;;;5088076;28;20367;-50
2023/06/25 15:57:19;;;;;;;;;;;;;;;;;;5088426;28;19943;-49
2023/06/25 15:59:46;;;;;;;;;;;;;;;;;;5088080;28;20074;-49
2023/06/25 16:02:11;;;;;;;;;;;;;;;;;;5078206;28;19952;-49
2023/06/25 16:04:37;;;;;;;;;;;;;;;;;;5069145;28;20368;-46
2023/06/25 16:07:03;;;;;;;;;;;;;;;;;;5069985;28;19912;-48
2023/06/25 16:09:29;;;;;;;;;;;;;;;;;;5069030;28;19916;-51
2023/06/25 16:11:55;;;;;;;;;;;;;;;;;;5069080;28;20334;-51
2023/06/25 16:14:21;;;;;;;;;;;;;;;;;;5069080;28;20001;-47
2023/06/25 16:16:47;;;;;;;;;;;;;;;;;;5068831;28;19974;-50
2023/06/25 16:19:13;;;;;;;;;;;;;;;;;;5069312;28;19938;-51
2023/06/25 16:21:39;;;;;;;;;;;;;;;;;;5068270;28;19935;-52
2023/06/25 16:24:05;;;;;;;;;;;;;;;;;;5068496;28;19915;-48
2023/06/25 16:26:31;;;;;;;;;;;;;;;;;;5067615;28;19909;-49
2023/06/25 16:28:57;;;;;;;;;;;;;;;;;;5068449;28;19938;-47
2023/06/25 16:31:23;;;;;;;;;;;;;;;;;;5067781;28;19920;-49
2023/06/25 16:33:49;;;;;;;;;;;;;;;;;;5068506;28;19917;-46
2023/06/25 16:36:14;;;;;;;;;;;;;;;;;;5065643;28;19924;-48
2023/06/25 16:38:40;;;;;;;;;;;;;;;;;;5064448;28;19981;-50
2023/06/25 16:41:06;;;;;;;;;;;;;;;;;;5063800;28;19922;-47
2023/06/25 16:43:32;;;;;;;;;;;;;;;;;;5062473;28;19920;-50
2023/06/25 16:45:58;;;;;;;;;;;;;;;;;;5059010;28;19912;-49
2023/06/25 16:48:25;;;;;;;;;;;;;;;;;;5077737;28;19912;-48
2023/06/25 16:50:51;;;;;;;;;;;;;;;;;;5061325;28;20424;-49
2023/06/25 16:53:17;;;;;;;;;;;;;;;;;;5062857;28;20007;-51
2023/06/25 16:55:43;;;;;;;;;;;;;;;;;;5062115;28;19924;-50
2023/06/25 16:58:09;;;;;;;;;;;;;;;;;;5061319;28;19913;-49
2023/06/25 17:00:35;;;;;;;;;;;;;;;;;;5064594;28;19913;-48
2023/06/25 17:03:02;;;;;;;;;;;;;;;;;;5067372;28;19951;-50
2023/06/25 17:05:29;;;;;;;;;;;;;;;;;;5054835;28;19928;-51
2023/06/25 17:07:55;;;;;;;;;;;;;;;;;;5057144;28;20004;-48
2023/06/25 17:10:21;;;;;;;;;;;;;;;;;;5057519;28;20049;-49
2023/06/25 17:12:47;;;;;;;;;;;;;;;;;;5065288;28;19917;-49
2023/06/25 17:15:13;;;;;;;;;;;;;;;;;;5059883;28;19921;-48
2023/06/25 17:17:39;;;;;;;;;;;;;;;;;;5059624;28;20346;-48
2023/06/25 17:20:05;;;;;;;;;;;;;;;;;;5051033;28;19913;-49
2023/06/25 17:22:31;;;;;;;;;;;;;;;;;;5049249;28;19917;-51
2023/06/25 17:24:57;;;;;;;;;;;;;;;;;;5064152;28;19938;-48
2023/06/25 17:27:24;;;;;;;;;;;;;;;;;;5055230;28;19935;-47
2023/06/25 17:29:52;;;;;;;;;;;;;;;;;;5060127;28;19920;-50
2023/06/25 17:32:18;;;;;;;;;;;;;;;;;;5064061;28;20310;-47
2023/06/25 17:34:44;;;;;;;;;;;;;;;;;;5064539;28;19914;-47
2023/06/25 17:37:12;;;;;;;;;;;;;;;;;;5059957;28;19997;-48
2023/06/25 17:39:38;;;;;;;;;;;;;;;;;;5060019;28;19959;-46
2023/06/25 17:42:05;;;;;;;;;;;;;;;;;;5053262;28;19916;-49
2023/06/25 17:44:32;;;;;;;;;;;;;;;;;;5064523;28;19912;-51
2023/06/25 17:46:58;;;;;;;;;;;;;;;;;;5058405;28;19917;-46
2023/06/25 17:49:24;;;;;;;;;;;;;;;;;;5047540;28;19913;-48
2023/06/25 17:51:51;;;;;;;;;;;;;;;;;;5075167;28;19970;-48
2023/06/25 17:54:17;;;;;;;;;;;;;;;;;;5063667;28;19916;-48
2023/06/25 17:56:44;;;;;;;;;;;;;;;;;;5059462;28;19928;-48
2023/06/25 17:59:09;;;;;;;;;;;;;;;;;;5062539;28;20752;-48
2023/06/25 18:01:35;;;;;;;;;;;;;;;;;;5059169;28;20020;-50
2023/06/25 18:04:02;;;;;;;;;;;;;;;;;;5059030;28;20267;-48
2023/06/25 18:06:28;;;;;;;;;;;;;;;;;;5060344;28;19922;-48
2023/06/25 18:08:54;;;;;;;;;;;;;;;;;;5059941;28;19913;-48
2023/06/25 18:11:21;;;;;;;;;;;;;;;;;;5060492;28;19940;-46
2023/06/25 18:13:47;;;;;;;;;;;;;;;;;;5059675;28;20379;-47
2023/06/25 18:16:13;;;;;;;;;;;;;;;;;;5058991;28;19921;-46
2023/06/25 18:18:39;;;;;;;;;;;;;;;;;;5060822;28;19939;-47
2023/06/25 18:21:05;;;;;;;;;;;;;;;;;;5065075;28;19917;-48
2023/06/25 18:23:31;;;;;;;;;;;;;;;;;;5057388;28;19913;-47
2023/06/25 18:25:58;;;;;;;;;;;;;;;;;;5058221;28;19919;-46
2023/06/25 18:28:24;;;;;;;;;;;;;;;;;;5056170;28;19920;-47
2023/06/25 18:30:50;;;;;;;;;;;;;;;;;;5061234;28;19922;-48
2023/06/25 18:33:18;;;;;;;;;;;;;;;;;;5059145;28;20440;-48
2023/06/25 18:35:44;;;;;;;;;;;;;;;;;;5064264;28;19927;-48
2023/06/25 18:38:10;;;;;;;;;;;;;;;;;;5056166;28;20394;-46
2023/06/25 18:40:35;;;;;;;;;;;;;;;;;;5060668;28;19927;-48
2023/06/25 18:43:02;;;;;;;;;;;;;;;;;;5058053;28;19952;-48
2023/06/25 18:45:28;;;;;;;;;;;;;;;;;;5058806;28;19916;-48
2023/06/25 18:47:54;;;;;;;;;;;;;;;;;;5063423;28;19999;-45
2023/06/25 18:50:21;;;;;;;;;;;;;;;;;;5063961;28;19920;-45
2023/06/25 18:52:47;;;;;;;;;;;;;;;;;;5054560;28;20437;-49
2023/06/25 18:55:13;;;;;;;;;;;;;;;;;;5064446;28;19920;-49
2023/06/25 18:57:39;;;;;;;;;;;;;;;;;;5065041;28;19920;-47
2023/06/25 19:00:05;;;;;;;;;;;;;;;;;;5065155;28;20256;-49
2023/06/25 19:02:31;;;;;;;;;;;;;;;;;;5078078;28;19917;-47
2023/06/25 19:04:57;;;;;;;;;;;;;;;;;;5060752;28;19999;-46
2023/06/25 19:07:24;;;;;;;;;;;;;;;;;;5063161;28;20400;-46
2023/06/25 19:09:51;;;;;;;;;;;;;;;;;;5063822;28;20295;-47
2023/06/25 19:12:16;;;;;;;;;;;;;;;;;;5065614;28;20318;-46
2023/06/25 19:14:42;;;;;;;;;;;;;;;;;;5056219;28;19970;-47
2023/06/25 19:17:08;;;;;;;;;;;;;;;;;;5061542;28;19916;-49
2023/06/25 19:19:36;;;;;;;;;;;;;;;;;;5066919;28;20422;-47
2023/06/25 19:22:02;;;;;;;;;;;;;;;;;;5066946;28;19953;-48
2023/06/25 19:24:28;;;;;;;;;;;;;;;;;;5065492;28;20044;-49
2023/06/25 19:26:54;;;;;;;;;;;;;;;;;;5066847;28;19917;-46
2023/06/25 19:29:20;;;;;;;;;;;;;;;;;;5049422;28;19917;-46
2023/06/25 19:31:48;;;;;;;;;;;;;;;;;;5052165;28;19916;-48
2023/06/25 19:34:13;;;;;;;;;;;;;;;;;;5066944;28;20529;-47
2023/06/25 19:36:39;;;;;;;;;;;;;;;;;;5066572;28;20069;-47
2023/06/25 19:39:05;;;;;;;;;;;;;;;;;;5057838;28;19913;-48
2023/06/25 19:41:32;;;;;;;;;;;;;;;;;;5065612;28;20007;-47
2023/06/25 19:43:58;;;;;;;;;;;;;;;;;;5065377;28;20354;-51
2023/06/25 19:46:25;;;;;;;;;;;;;;;;;;5066658;28;19916;-46
2023/06/25 19:48:51;;;;;;;;;;;;;;;;;;5066409;28;19924;-48
2023/06/25 19:51:18;;;;;;;;;;;;;;;;;;5066285;28;19909;-48
2023/06/25 19:53:44;;;;;;;;;;;;;;;;;;5066874;28;19967;-47
2023/06/25 19:56:14;;;;;;;;;;;;;;;;;;5062856;28;19916;-47
2023/06/25 19:58:40;;;;;;;;;;;;;;;;;;5061901;28;19919;-48
2023/06/25 20:01:06;;;;;;;;;;;;;;;;;;5056616;28;19921;-49
2023/06/25 20:03:31;;;;;;;;;;;;;;;;;;5049052;28;19909;-47
2023/06/25 20:06:00;;;;;;;;;;;;;;;;;;5065053;28;19912;-47
2023/06/25 20:08:26;;;;;;;;;;;;;;;;;;5065391;28;19952;-47
2023/06/25 20:10:52;;;;;;;;;;;;;;;;;;5065407;28;19947;-46
2023/06/25 20:13:17;;;;;;;;;;;;;;;;;;5061646;28;19920;-47
2023/06/25 20:15:43;;;;;;;;;;;;;;;;;;5049470;28;20387;-46
2023/06/25 20:18:09;;;;;;;;;;;;;;;;;;5065790;28;19962;-45
2023/06/25 20:20:35;;;;;;;;;;;;;;;;;;5065688;28;20415;-48
2023/06/25 20:23:01;;;;;;;;;;;;;;;;;;5064787;28;20183;-47
2023/06/25 20:25:29;;;;;;;;;;;;;;;;;;5059827;28;20357;-46
2023/06/25 20:27:54;;;;;;;;;;;;;;;;;;5065844;28;19955;-46
2023/06/25 20:30:20;;;;;;;;;;;;;;;;;;5065891;28;19947;-46
2023/06/25 20:32:46;;;;;;;;;;;;;;;;;;5071280;28;19916;-45
2023/06/25 20:35:13;;;;;;;;;;;;;;;;;;5065189;28;19920;-46
2023/06/25 20:37:39;;;;;;;;;;;;;;;;;;5065891;28;19913;-46
2023/06/25 20:40:06;;;;;;;;;;;;;;;;;;5063735;28;20448;-46
2023/06/25 20:42:32;;;;;;;;;;;;;;;;;;5064651;28;20212;-46
2023/06/25 20:44:58;;;;;;;;;;;;;;;;;;5065501;28;19908;-45
2023/06/25 20:47:23;;;;;;;;;;;;;;;;;;5063856;28;19920;-47
2023/06/25 20:49:50;;;;;;;;;;;;;;;;;;5064920;28;19912;-49
2023/06/25 20:52:16;;;;;;;;;;;;;;;;;;5064517;28;19920;-48
2023/06/25 20:54:44;;;;;;;;;;;;;;;;;;5065240;28;20464;-46
2023/06/25 20:57:10;;;;;;;;;;;;;;;;;;5065738;28;20705;-47
2023/06/25 20:59:36;;;;;;;;;;;;;;;;;;5063412;28;19923;-47
2023/06/25 21:02:02;;;;;;;;;;;;;;;;;;5055115;28;19912;-46
2023/06/25 21:04:28;;;;;;;;;;;;;;;;;;5051927;28;20482;-45
2023/06/25 21:06:54;;;;;;;;;;;;;;;;;;5050149;28;19923;-47
2023/06/25 21:09:20;;;;;;;;;;;;;;;;;;5063971;28;19917;-49
2023/06/25 21:11:46;;;;;;;;;;;;;;;;;;5064406;28;19952;-46
2023/06/25 21:14:12;;;;;;;;;;;;;;;;;;5082117;28;19916;-46
2023/06/25 21:16:38;;;;;;;;;;;;;;;;;;5070630;28;19924;-48
2023/06/25 21:19:04;;;;;;;;;;;;;;;;;;5066180;28;20003;-46
2023/06/25 21:21:30;;;;;;;;;;;;;;;;;;5071295;28;19923;-50
2023/06/25 21:23:56;;;;;;;;;;;;;;;;;;5051380;28;19946;-46
2023/06/25 21:26:22;;;;;;;;;;;;;;;;;;5049799;28;19909;-46
2023/06/25 21:28:48;;;;;;;;;;;;;;;;;;5067469;28;20397;-48
2023/06/25 21:31:14;;;;;;;;;;;;;;;;;;5068149;28;19908;-49
2023/06/25 21:33:40;;;;;;;;;;;;;;;;;;5067601;28;19951;-47
2023/06/25 21:36:06;;;;;;;;;;;;;;;;;;5067370;28;19916;-49
2023/06/25 21:38:32;;;;;;;;;;;;;;;;;;5067430;28;19983;-50
2023/06/25 21:40:58;;;;;;;;;;;;;;;;;;5067256;28;19999;-46
2023/06/25 21:43:24;;;;;;;;;;;;;;;;;;5067623;28;19931;-46
2023/06/25 21:45:49;;;;;;;;;;;;;;;;;;5067430;28;19920;-48